Time;durP1;ratioP1;P1;durP2;ratioP2;P2;SDS_P1;SDS_P2;PMS_P1;PMS_P2;Temp;Humidity;BMP_temperature;BMP_pressure;BME280_temperature;BME280_humidity;BME280_pressure;Samples;Min_cycle;Max_cycle;Signal;HPM_P1;HPM_P2
2022/04/24 00:00:24;;;;;;;33.98;21.90;;;;;;;6.47;81.26;99768.74;1663419;86;25311;-75
2022/04/24 00:02:53;;;;;;;36.70;23.22;;;;;;;6.45;81.55;99764.11;1651673;86;26582;-75
2022/04/24 00:05:19;;;;;;;35.13;25.45;;;;;;;6.45;81.66;99763.27;1663221;86;26296;-75
2022/04/24 00:07:45;;;;;;;30.48;21.60;;;;;;;6.43;81.71;99764.80;1663217;86;26468;-75
2022/04/24 00:10:12;;;;;;;29.82;20.37;;;;;;;6.42;81.41;99767.12;1663348;85;27474;-75
2022/04/24 00:12:38;;;;;;;29.23;20.45;;;;;;;6.40;81.56;99765.64;1663172;86;26022;-75
2022/04/24 00:15:06;;;;;;;31.27;21.12;;;;;;;6.38;81.75;99763.16;1663271;86;26712;-74
2022/04/24 00:17:32;;;;;;;30.97;20.02;;;;;;;6.36;81.72;99762.52;1651676;86;25893;-75
2022/04/24 00:19:58;;;;;;;32.60;20.10;;;;;;;6.32;81.46;99766.55;1649951;86;26019;-75
2022/04/24 00:22:26;;;;;;;36.33;21.55;;;;;;;6.28;81.38;99767.92;1668265;85;27692;-75
2022/04/24 00:24:52;;;;;;;33.98;23.70;;;;;;;6.24;81.45;99763.97;1636578;86;25782;-75
2022/04/24 00:27:18;;;;;;;36.35;22.37;;;;;;;6.21;81.72;99762.98;1634446;86;26472;-76
2022/04/24 00:29:44;;;;;;;31.27;21.45;;;;;;;6.18;81.79;99757.52;1675274;85;26539;-75
2022/04/24 00:32:10;;;;;;;29.67;21.68;;;;;;;6.16;81.94;99764.84;1675387;85;25819;-75
2022/04/24 00:34:37;;;;;;;39.58;22.65;;;;;;;6.14;81.95;99764.70;1670805;85;27473;-75
2022/04/24 00:37:03;;;;;;;34.92;22.30;;;;;;;6.14;82.05;99760.70;1663334;86;25928;-75
2022/04/24 00:39:30;;;;;;;35.75;22.15;;;;;;;6.14;82.12;99762.03;1663327;86;25804;-75
2022/04/24 00:41:56;;;;;;;36.93;21.37;;;;;;;6.15;82.14;99754.40;1663039;86;25767;-75
2022/04/24 00:44:23;;;;;;;40.28;22.13;;;;;;;6.13;82.24;99755.92;1663862;86;25904;-75
2022/04/24 00:47:18;;;;;;;34.75;21.65;;;;;;;6.14;82.02;99755.39;1642720;86;28396;-75
2022/04/24 00:49:45;;;;;;;38.80;20.85;;;;;;;6.09;82.02;99753.27;1663669;86;25828;-75
2022/04/24 00:52:13;;;;;;;38.00;21.97;;;;;;;6.05;81.93;99762.61;1663141;86;25803;-75
2022/04/24 00:54:40;;;;;;;41.37;21.17;;;;;;;6.04;82.07;99757.47;1621783;87;26501;-75
2022/04/24 00:57:08;;;;;;;31.02;20.23;;;;;;;6.02;82.27;99752.34;1636138;86;25911;-75
2022/04/24 00:59:34;;;;;;;29.50;18.73;;;;;;;6.01;82.30;99755.99;1633108;87;28717;-75
2022/04/24 01:02:06;;;;;;;31.75;19.70;;;;;;;6.01;82.36;99753.83;1663203;86;25754;-75
2022/04/24 01:04:35;;;;;;;28.32;16.82;;;;;;;5.99;82.42;99753.19;1659195;86;25893;-75
2022/04/24 01:07:01;;;;;;;25.82;16.90;;;;;;;5.95;82.24;99750.06;1658511;84;25785;-75
2022/04/24 01:09:28;;;;;;;31.12;18.62;;;;;;;5.96;82.46;99754.88;1664086;86;25970;-75
2022/04/24 01:11:55;;;;;;;30.35;17.85;;;;;;;5.95;82.36;99755.38;1663223;86;27648;-75
2022/04/24 01:14:28;;;;;;;29.12;17.90;;;;;;;5.97;82.25;99761.84;1661253;86;25838;-75
2022/04/24 01:16:55;;;;;;;29.45;17.98;;;;;;;5.88;81.51;99758.94;1660842;86;25762;-75
2022/04/24 01:19:22;;;;;;;29.98;18.05;;;;;;;5.73;81.09;99760.67;1663610;86;25844;-75
2022/04/24 01:21:51;;;;;;;29.30;18.62;;;;;;;5.64;81.21;99754.58;1663662;86;26344;-75
2022/04/24 01:24:21;;;;;;;28.85;17.50;;;;;;;5.63;81.51;99750.75;1663708;86;27516;-75
2022/04/24 01:26:48;;;;;;;28.42;17.80;;;;;;;5.62;81.59;99755.26;1663564;86;26005;-75
2022/04/24 01:29:16;;;;;;;27.45;17.23;;;;;;;5.64;81.69;99751.09;1663593;86;26182;-75
2022/04/24 01:31:48;;;;;;;30.45;16.90;;;;;;;5.63;81.81;99742.78;1662022;86;26466;-75
2022/04/24 01:34:15;;;;;;;28.77;17.40;;;;;;;5.65;82.07;99739.45;1655254;86;25998;-75
2022/04/24 01:36:42;;;;;;;29.25;16.85;;;;;;;5.65;82.20;99746.92;1663444;86;28039;-75
2022/04/24 01:39:09;;;;;;;24.92;16.37;;;;;;;5.65;82.30;99748.25;1663608;86;25860;-75
2022/04/24 01:41:35;;;;;;;22.60;16.97;;;;;;;5.63;82.08;99750.25;1663561;86;26520;-75
2022/04/24 01:44:02;;;;;;;105.27;51.48;;;;;;;5.63;81.92;99749.42;1663554;86;25867;-75
2022/04/24 01:46:29;;;;;;;36.58;24.05;;;;;;;5.65;82.08;99748.74;1663907;86;25866;-75
2022/04/24 01:48:55;;;;;;;28.23;18.55;;;;;;;5.65;82.18;99749.58;1654283;86;27520;-74
2022/04/24 01:51:21;;;;;;;24.67;15.30;;;;;;;5.61;81.75;99762.89;1663290;86;25926;-75
2022/04/24 01:53:47;;;;;;;27.60;16.27;;;;;;;5.53;81.27;99751.48;1663579;86;26264;-75
2022/04/24 01:56:14;;;;;;;25.85;16.10;;;;;;;5.45;81.37;99760.34;1663353;86;25776;-75
2022/04/24 01:58:40;;;;;;;24.80;16.77;;;;;;;5.38;81.52;99760.70;1661425;86;26586;-75
2022/04/24 02:01:07;;;;;;;27.13;16.30;;;;;;;5.34;81.73;99764.70;1615488;87;28293;-75
2022/04/24 02:03:35;;;;;;;22.00;14.58;;;;;;;5.31;82.00;99764.55;1635213;87;25792;-75
2022/04/24 02:06:04;;;;;;;25.88;16.27;;;;;;;5.31;82.16;99757.91;1634969;86;25766;-75
2022/04/24 02:08:35;;;;;;;23.90;15.43;;;;;;;5.31;82.22;99755.25;1636663;87;26509;-75
2022/04/24 02:11:02;;;;;;;21.97;15.48;;;;;;;5.32;82.42;99760.88;1653220;86;25854;-75
2022/04/24 02:13:28;;;;;;;22.80;14.53;;;;;;;5.31;82.44;99759.23;1659340;86;28304;-75
2022/04/24 02:15:54;;;;;;;22.75;14.80;;;;;;;5.32;82.46;99758.22;1663227;86;25862;-75
2022/04/24 02:18:20;;;;;;;26.68;15.78;;;;;;;5.33;82.37;99761.71;1663680;86;25933;-75
2022/04/24 02:20:46;;;;;;;27.42;16.70;;;;;;;5.34;82.51;99754.09;1663291;86;25916;-75
2022/04/24 02:23:13;;;;;;;25.15;16.27;;;;;;;5.35;82.55;99756.56;1663388;86;25948;-75
2022/04/24 02:25:39;;;;;;;26.77;16.20;;;;;;;5.34;82.42;99754.92;1663690;86;27548;-75
2022/04/24 02:28:06;;;;;;;22.80;15.80;;;;;;;5.30;82.18;99749.59;1663334;86;25881;-75
2022/04/24 02:30:32;;;;;;;27.62;15.98;;;;;;;5.28;82.06;99749.47;1663842;86;25901;-75
2022/04/24 02:33:00;;;;;;;26.45;16.77;;;;;;;5.28;82.12;99757.44;1663088;86;25825;-75
2022/04/24 02:35:28;;;;;;;22.85;15.53;;;;;;;5.26;82.14;99754.12;1663688;86;25949;-75
2022/04/24 02:37:54;;;;;;;27.20;16.95;;;;;;;5.27;82.18;99757.09;1663139;86;28315;-75
2022/04/24 02:40:27;;;;;;;23.27;15.90;;;;;;;5.28;82.08;99760.09;1652203;86;25791;-75
2022/04/24 02:42:50;;;;;;;27.80;17.30;;;;;;;5.26;82.00;99758.92;1662294;86;25752;-75
2022/04/24 02:45:17;;;;;;;24.55;15.35;;;;;;;5.27;82.04;99765.90;1663638;85;25771;-75
2022/04/24 02:47:43;;;;;;;25.35;15.80;;;;;;;5.25;82.12;99765.73;1663257;86;26080;-75
2022/04/24 02:50:10;;;;;;;23.85;16.48;;;;;;;5.19;81.91;99761.96;1663444;86;27480;-75
2022/04/24 02:52:54;;;;;;;24.82;16.48;;;;;;;5.12;81.84;99762.80;1662593;86;25870;-75
2022/04/24 02:55:22;;;;;;;27.65;17.55;;;;;;;5.09;82.14;99762.64;1656356;86;25854;-75
2022/04/24 02:57:49;;;;;;;27.50;16.77;;;;;;;5.10;82.33;99759.00;1663067;86;25841;-75
2022/04/24 03:00:20;;;;;;;27.42;17.48;;;;;;;5.12;82.44;99759.66;1663588;86;26217;-75
2022/04/24 03:02:46;;;;;;;29.37;16.82;;;;;;;5.10;82.33;99768.30;1663342;86;27725;-75
2022/04/24 03:05:16;;;;;;;26.90;17.00;;;;;;;5.10;82.34;99768.30;1663327;86;25950;-75
2022/04/24 03:07:43;;;;;;;26.50;16.90;;;;;;;5.08;82.33;99759.68;1663345;86;25835;-75
2022/04/24 03:10:10;;;;;;;27.42;15.72;;;;;;;5.06;82.35;99761.67;1663179;86;25790;-75
2022/04/24 03:12:38;;;;;;;20.27;14.55;;;;;;;5.00;81.67;99754.91;1654383;86;25810;-75
2022/04/24 03:15:07;;;;;;;20.62;14.35;;;;;;;4.90;81.51;99750.30;1663597;86;27477;-75
2022/04/24 03:17:34;;;;;;;20.92;14.38;;;;;;;4.80;81.35;99750.97;1663079;86;26598;-75
2022/04/24 03:20:07;;;;;;;24.10;16.50;;;;;;;4.70;81.59;99749.33;1651191;86;25900;-75
2022/04/24 03:22:33;;;;;;;24.55;15.00;;;;;;;4.66;82.03;99752.00;1662839;86;26552;-75
2022/04/24 03:25:01;;;;;;;22.60;15.38;;;;;;;4.64;81.87;99749.21;1652657;86;25842;-75
2022/04/24 03:27:27;;;;;;;22.15;15.65;;;;;;;4.62;82.10;99752.50;1663521;86;27474;-75
2022/04/24 03:29:53;;;;;;;23.55;16.65;;;;;;;4.64;82.22;99755.84;1663468;86;26355;-75
2022/04/24 03:32:19;;;;;;;25.00;15.32;;;;;;;4.65;82.42;99757.48;1663309;85;26385;-75
2022/04/24 03:34:45;;;;;;;25.25;16.60;;;;;;;4.67;82.37;99758.98;1663207;86;26531;-75
2022/04/24 03:37:12;;;;;;;24.50;15.55;;;;;;;4.67;82.27;99758.98;1663339;86;25926;-75
2022/04/24 03:39:38;;;;;;;27.37;16.12;;;;;;;4.65;82.29;99758.81;1663733;85;27487;-75
2022/04/24 03:42:06;;;;;;;28.98;15.80;;;;;;;4.60;82.18;99762.45;1666213;85;25815;-75
2022/04/24 03:44:34;;;;;;;24.32;15.78;;;;;;;4.58;82.59;99765.28;1657419;85;25373;-75
2022/04/24 03:47:00;;;;;;;21.73;14.33;;;;;;;4.59;82.69;99766.13;1662221;86;26486;-75
2022/04/24 03:49:26;;;;;;;24.32;15.85;;;;;;;4.60;82.79;99761.97;1663334;86;26008;-75
2022/04/24 03:51:53;;;;;;;25.75;14.90;;;;;;;4.61;82.94;99757.00;1663094;86;28171;-74
2022/04/24 03:54:20;;;;;;;23.05;14.50;;;;;;;4.62;83.20;99772.39;1659976;86;26452;-75
2022/04/24 03:56:46;;;;;;;26.37;15.68;;;;;;;4.62;83.39;99760.46;1622880;87;25342;-75
2022/04/24 03:59:13;;;;;;;21.55;13.78;;;;;;;4.61;83.56;99758.33;1636383;87;27121;-75
2022/04/24 04:01:40;;;;;;;22.75;15.28;;;;;;;4.61;83.66;99754.35;1663025;86;26061;-75
2022/04/24 04:04:06;;;;;;;22.25;14.05;;;;;;;4.57;83.54;99751.71;1655421;86;27108;-75
2022/04/24 04:06:32;;;;;;;19.95;13.75;;;;;;;4.55;83.54;99758.17;1663524;84;26550;-75
2022/04/24 04:08:58;;;;;;;24.20;17.02;;;;;;;4.53;83.64;99753.02;1663441;86;26046;-76
2022/04/24 04:11:26;;;;;;;25.37;17.92;;;;;;;4.55;83.90;99766.97;1660759;86;25842;-75
2022/04/24 04:13:53;;;;;;;22.90;14.85;;;;;;;4.57;84.33;99766.30;1660288;86;25826;-76
2022/04/24 04:16:20;;;;;;;23.20;14.65;;;;;;;4.60;84.48;99765.94;1655697;86;28698;-75
2022/04/24 04:18:46;;;;;;;22.48;15.20;;;;;;;4.62;84.59;99757.81;1660354;86;25886;-75
2022/04/24 04:21:12;;;;;;;19.85;14.28;;;;;;;4.66;84.84;99753.33;1655393;86;25774;-76
2022/04/24 04:23:38;;;;;;;23.57;13.83;;;;;;;4.71;85.06;99754.15;1660925;86;25881;-75
2022/04/24 04:26:04;;;;;;;23.92;14.78;;;;;;;4.72;85.18;99752.33;1660609;86;26370;-76
2022/04/24 04:28:31;;;;;;;21.68;12.88;;;;;;;4.73;85.21;99754.80;1657499;86;27463;-76
2022/04/24 04:30:57;;;;;;;25.88;16.77;;;;;;;4.76;85.45;99757.13;1658176;86;25918;-75
2022/04/24 04:33:23;;;;;;;25.30;15.38;;;;;;;4.80;85.83;99756.28;1655986;86;25749;-76
2022/04/24 04:35:50;;;;;;;23.10;13.58;;;;;;;4.88;86.00;99749.61;1656347;86;25827;-76
2022/04/24 04:38:16;;;;;;;18.85;13.03;;;;;;;4.95;86.35;99752.75;1657067;86;26477;-76
2022/04/24 04:40:44;;;;;;;22.80;13.13;;;;;;;4.98;86.58;99746.28;1660628;86;28047;-76
2022/04/24 04:43:11;;;;;;;20.32;12.73;;;;;;;4.98;86.61;99748.45;1660655;86;26296;-76
2022/04/24 04:45:37;;;;;;;20.85;13.60;;;;;;;4.98;86.66;99748.45;1657837;86;25799;-75
2022/04/24 04:48:04;;;;;;;24.18;13.38;;;;;;;5.04;86.57;99757.05;1663399;86;25890;-76
2022/04/24 04:50:30;;;;;;;21.05;12.78;;;;;;;5.10;86.79;99758.17;1663590;86;26757;-75
2022/04/24 04:52:57;;;;;;;17.95;13.58;;;;;;;5.13;86.84;99753.33;1663259;86;28350;-75
2022/04/24 04:55:23;;;;;;;20.12;13.15;;;;;;;5.20;87.00;99755.63;1663178;85;25944;-75
2022/04/24 04:57:51;;;;;;;20.52;12.80;;;;;;;5.23;87.34;99751.31;1663496;86;26125;-76
2022/04/24 05:00:18;;;;;;;20.60;13.18;;;;;;;5.25;87.79;99744.00;1663481;85;25779;-76
2022/04/24 05:02:44;;;;;;;22.93;14.68;;;;;;;5.27;87.98;99743.33;1662623;85;25995;-76
2022/04/24 05:05:11;;;;;;;21.93;12.93;;;;;;;5.27;88.22;99739.34;1663200;86;28266;-76
2022/04/24 05:07:37;;;;;;;20.70;13.48;;;;;;;5.32;88.34;99742.81;1663137;86;26439;-76
2022/04/24 05:10:06;;;;;;;18.73;12.70;;;;;;;5.40;88.45;99745.42;1663613;86;25790;-75
2022/04/24 05:12:32;;;;;;;18.07;12.10;;;;;;;5.51;88.64;99745.52;1663477;86;26558;-76
2022/04/24 05:15:05;;;;;;;21.05;13.03;;;;;;;5.58;88.72;99748.62;1663469;86;25849;-76
2022/04/24 05:17:31;;;;;;;18.00;13.13;;;;;;;5.63;88.87;99750.75;1663538;86;27539;-75
2022/04/24 05:19:57;;;;;;;16.52;12.47;;;;;;;5.70;89.37;99750.38;1663316;86;25958;-76
2022/04/24 05:22:24;;;;;;;25.00;13.30;;;;;;;5.77;89.29;99752.17;1663678;86;25784;-75
2022/04/24 05:24:50;;;;;;;18.92;12.43;;;;;;;5.85;89.16;99747.32;1663594;86;25917;-75
2022/04/24 05:27:17;;;;;;;20.68;13.00;;;;;;;5.93;89.58;99744.10;1663721;86;25961;-76
2022/04/24 05:29:44;;;;;;;22.35;12.43;;;;;;;6.03;89.90;99750.52;1663114;86;28688;-76
2022/04/24 05:32:10;;;;;;;22.07;13.48;;;;;;;6.13;90.03;99752.42;1663201;86;25835;-76
2022/04/24 05:34:41;;;;;;;19.90;12.98;;;;;;;6.22;90.29;99754.82;1665746;85;25796;-76
2022/04/24 05:37:05;;;;;;;17.20;12.95;;;;;;;6.33;90.36;99757.55;1662837;86;26793;-76
2022/04/24 05:39:31;;;;;;;21.20;13.32;;;;;;;6.45;90.20;99761.45;1663586;86;25822;-75
2022/04/24 05:41:58;;;;;;;18.75;13.65;;;;;;;6.56;90.20;99765.00;1663311;86;28289;-76
2022/04/24 05:44:24;;;;;;;18.35;11.90;;;;;;;6.68;90.12;99771.53;1663405;86;25927;-76
2022/04/24 05:46:50;;;;;;;20.90;13.00;;;;;;;6.81;90.10;99774.88;1662999;86;25860;-76
2022/04/24 05:49:17;;;;;;;19.92;13.03;;;;;;;6.93;90.11;99778.73;1663569;86;25834;-76
2022/04/24 05:51:44;;;;;;;18.90;14.10;;;;;;;7.05;89.69;99777.28;1663509;86;25808;-76
2022/04/24 05:54:11;;;;;;;24.45;13.78;;;;;;;7.15;89.35;99769.83;1663367;86;27736;-76
2022/04/24 05:56:41;;;;;;;19.27;12.70;;;;;;;7.27;89.45;99765.67;1651648;86;26329;-76
2022/04/24 05:59:08;;;;;;;19.98;13.60;;;;;;;7.39;89.41;99763.38;1663365;86;26416;-76
2022/04/24 06:01:35;;;;;;;19.35;13.13;;;;;;;7.47;89.15;99769.42;1663314;86;26337;-76
2022/04/24 06:04:02;;;;;;;21.00;12.73;;;;;;;7.55;88.76;99774.64;1657816;86;25777;-75
2022/04/24 06:06:30;;;;;;;24.50;13.15;;;;;;;7.64;88.78;99781.52;1663412;86;27461;-76
2022/04/24 06:08:56;;;;;;;17.25;12.93;;;;;;;7.76;88.98;99791.20;1663481;86;26487;-76
2022/04/24 06:11:23;;;;;;;17.85;12.53;;;;;;;7.89;89.35;99790.52;1663692;86;25342;-77
2022/04/24 06:13:49;;;;;;;17.07;12.25;;;;;;;7.94;89.17;99789.41;1663086;86;25993;-75
2022/04/24 06:16:15;;;;;;;17.02;13.03;;;;;;;7.94;88.87;99794.75;1660904;85;26373;-75
2022/04/24 06:18:41;;;;;;;15.88;12.88;;;;;;;8.00;88.78;99780.69;1666662;85;27479;-75
2022/04/24 06:21:08;;;;;;;16.00;12.55;;;;;;;8.04;88.92;99781.42;1653727;86;25994;-75
2022/04/24 06:23:34;;;;;;;18.17;12.13;;;;;;;8.08;89.09;99783.22;1657796;86;25829;-75
2022/04/24 06:26:00;;;;;;;18.37;12.85;;;;;;;8.05;88.83;99776.42;1624388;87;25853;-75
2022/04/24 06:28:26;;;;;;;20.85;12.40;;;;;;;8.04;89.02;99789.95;1617678;87;26095;-75
2022/04/24 06:30:52;;;;;;;16.25;12.33;;;;;;;7.98;88.47;99788.02;1656004;86;27448;-74
2022/04/24 06:33:19;;;;;;;15.85;12.05;;;;;;;7.97;89.11;99784.55;1661315;86;25836;-74
2022/04/24 06:35:45;;;;;;;18.05;12.78;;;;;;;8.01;89.53;99791.66;1653604;85;25367;-74
2022/04/24 06:38:11;;;;;;;15.68;11.35;;;;;;;8.03;89.16;99791.78;1657069;86;26272;-74
2022/04/24 06:40:38;;;;;;;22.52;13.98;;;;;;;8.08;89.56;99792.55;1654997;86;26136;-74
2022/04/24 06:43:07;;;;;;;20.08;14.30;;;;;;;8.12;89.07;99788.48;1629758;87;27469;-74
2022/04/24 06:45:39;;;;;;;15.30;11.97;;;;;;;8.14;89.82;99787.28;1619747;87;26560;-75
2022/04/24 06:48:09;;;;;;;16.97;12.68;;;;;;;8.16;89.41;99791.92;1634906;86;25670;-74
2022/04/24 06:50:38;;;;;;;17.50;13.62;;;;;;;8.12;89.26;99783.98;1619344;87;26359;-74
2022/04/24 06:53:08;;;;;;;18.60;14.13;;;;;;;8.11;88.77;99784.98;1627481;86;26005;-74
2022/04/24 06:55:37;;;;;;;19.17;13.68;;;;;;;8.15;88.62;99788.92;1653648;86;27443;-75
2022/04/24 06:58:05;;;;;;;17.02;12.60;;;;;;;8.25;88.60;99792.14;1625902;87;26455;-74
2022/04/24 07:00:36;;;;;;;15.80;12.15;;;;;;;8.36;88.25;99800.14;1620746;87;25966;-74
2022/04/24 07:03:23;;;;;;;19.82;13.40;;;;;;;8.44;88.15;99799.50;1623841;87;26641;-74
2022/04/24 07:05:53;;;;;;;16.27;12.40;;;;;;;8.54;87.86;99803.98;1626708;87;25646;-74
2022/04/24 07:08:21;;;;;;;15.53;11.65;;;;;;;8.64;87.13;99810.31;1624834;87;27513;-74
2022/04/24 07:10:47;;;;;;;16.75;12.15;;;;;;;8.75;87.47;99804.95;1617030;87;25779;-74
2022/04/24 07:13:14;;;;;;;14.43;11.25;;;;;;;8.83;86.55;99799.48;1630454;87;25860;-73
2022/04/24 07:15:40;;;;;;;15.15;11.05;;;;;;;8.93;87.48;99797.29;1662446;85;26433;-74
2022/04/24 07:18:07;;;;;;;17.95;12.05;;;;;;;9.04;86.83;99791.41;1661044;85;26528;-74
2022/04/24 07:20:34;;;;;;;16.02;11.85;;;;;;;9.09;85.71;99779.59;1645435;85;27639;-73
2022/04/24 07:23:02;;;;;;;14.78;10.13;;;;;;;9.08;85.18;99783.31;1635829;86;25791;-77
2022/04/24 07:25:39;;;;;;;17.02;10.75;;;;;;;9.14;86.07;99786.02;1633977;86;25816;-76
2022/04/24 07:28:04;;;;;;;13.13;9.63;;;;;;;9.18;84.51;99789.11;1641724;85;26387;-76
2022/04/24 07:30:30;;;;;;;15.28;11.80;;;;;;;9.19;84.55;99788.94;1642049;87;25918;-75
2022/04/24 07:32:57;;;;;;;17.87;11.57;;;;;;;9.30;85.65;99792.36;1642181;87;28709;-74
2022/04/24 07:35:31;;;;;;;16.60;12.18;;;;;;;9.45;85.24;99790.08;1638762;87;25826;-74
2022/04/24 07:37:57;;;;;;;13.08;9.73;;;;;;;9.56;84.70;99782.30;1631564;87;25308;-74
2022/04/24 07:40:26;;;;;;;16.73;11.63;;;;;;;9.67;84.57;99780.89;1641976;87;26459;-74
2022/04/24 07:43:05;;;;;;;19.12;12.90;;;;;;;9.76;84.24;99780.53;1641976;87;25872;-74
2022/04/24 07:45:40;;;;;;;15.35;10.18;;;;;;;9.86;84.42;99774.78;1641601;87;28322;-74
2022/04/24 07:48:09;;;;;;;13.22;9.43;;;;;;;9.95;84.08;99781.59;1641157;85;25858;-75
2022/04/24 07:50:39;;;;;;;12.03;8.85;;;;;;;10.04;83.42;99782.56;1634765;87;25846;-74
2022/04/24 07:53:07;;;;;;;10.58;9.45;;;;;;;10.13;83.28;99784.56;1662374;85;26559;-74
2022/04/24 07:55:33;;;;;;;12.60;9.08;;;;;;;10.24;83.13;99781.29;1661526;86;25989;-75
2022/04/24 07:58:00;;;;;;;10.72;8.68;;;;;;;10.31;82.43;99782.09;1659342;86;27458;-74
2022/04/24 08:00:32;;;;;;;13.85;8.90;;;;;;;10.37;81.78;99775.92;1658990;86;25938;-74
2022/04/24 08:03:08;;;;;;;11.25;8.20;;;;;;;10.46;82.17;99778.70;1659138;86;25837;-74
2022/04/24 08:05:44;;;;;;;11.75;9.00;;;;;;;10.54;81.35;99776.36;1634767;86;25825;-74
2022/04/24 08:08:20;;;;;;;10.20;8.70;;;;;;;10.64;81.13;99777.59;1631163;87;25772;-74
2022/04/24 08:10:56;;;;;;;10.38;8.28;;;;;;;10.79;82.32;99779.53;1639207;86;27529;-74
2022/04/24 08:13:24;;;;;;;9.65;7.53;;;;;;;10.95;81.71;99778.25;1635037;87;25863;-74
2022/04/24 08:15:52;;;;;;;9.73;7.00;;;;;;;11.06;80.71;99775.45;1635010;87;25918;-74
2022/04/24 08:18:21;;;;;;;7.65;6.58;;;;;;;11.14;79.44;99772.56;1634647;86;26018;-74
2022/04/24 08:20:47;;;;;;;7.47;6.25;;;;;;;11.18;78.92;99771.94;1635080;87;26612;-74
2022/04/24 08:23:15;;;;;;;6.42;5.58;;;;;;;11.21;78.47;99776.86;1634745;87;27533;-75
2022/04/24 08:25:42;;;;;;;7.58;6.25;;;;;;;11.27;77.84;99767.97;1634911;87;25975;-74
2022/04/24 08:28:11;;;;;;;6.58;5.50;;;;;;;11.33;77.60;99771.14;1634915;86;25950;-74
2022/04/24 08:30:42;;;;;;;7.78;6.22;;;;;;;11.42;76.88;99768.53;1635026;87;25788;-74
2022/04/24 08:33:08;;;;;;;;;;;;;;;11.54;77.24;99760.66;1664906;85;25967;-74
2022/04/24 08:35:35;;;;;;;7.83;5.20;;;;;;;11.70;78.04;99760.19;1636428;87;27332;-74
2022/04/24 08:38:01;;;;;;;7.25;5.47;;;;;;;11.94;77.60;99760.78;1631462;84;25955;-75
2022/04/24 08:40:27;;;;;;;12.53;5.62;;;;;;;12.01;76.70;99758.89;1625694;87;25993;-74
2022/04/24 08:42:55;;;;;;;5.17;4.67;;;;;;;12.01;76.24;99751.35;1642584;86;25831;-75
2022/04/24 08:45:26;;;;;;;7.22;6.12;;;;;;;12.07;75.35;99747.80;1667688;85;25802;-74
2022/04/24 08:47:54;;;;;;;6.72;5.17;;;;;;;12.11;75.22;99747.15;1667983;84;28284;-74
2022/04/24 08:50:20;;;;;;;5.40;4.78;;;;;;;12.12;74.49;99739.41;1668131;85;25837;-75
2022/04/24 08:52:48;;;;;;;5.65;4.78;;;;;;;12.23;75.18;99741.37;1668171;85;25767;-75
2022/04/24 08:55:15;;;;;;;4.35;3.92;;;;;;;12.21;72.64;99736.74;1666891;85;26399;-74
2022/04/24 08:57:41;;;;;;;5.47;4.40;;;;;;;12.13;72.60;99732.98;1638317;86;26017;-74
2022/04/24 09:00:09;;;;;;;4.40;3.95;;;;;;;12.12;72.75;99739.41;1638279;87;28113;-75
2022/04/24 09:02:36;;;;;;;5.33;4.42;;;;;;;12.10;72.30;99740.13;1637966;87;26055;-74
2022/04/24 09:05:06;;;;;;;3.83;3.47;;;;;;;12.17;72.09;99731.51;1655380;85;25889;-75
2022/04/24 09:07:34;;;;;;;4.80;4.25;;;;;;;12.21;72.22;99734.06;1668133;84;25769;-74
2022/04/24 09:10:11;;;;;;;4.72;4.25;;;;;;;12.28;73.38;99738.03;1668501;85;25791;-75
2022/04/24 09:12:38;;;;;;;4.60;4.15;;;;;;;12.39;72.74;99747.56;1655447;85;28268;-74
2022/04/24 09:15:07;;;;;;;5.78;4.17;;;;;;;12.44;72.01;99740.70;1639755;87;26042;-74
2022/04/24 09:17:35;;;;;;;4.55;4.08;;;;;;;12.61;72.51;99742.63;1639713;85;25969;-74
2022/04/24 09:20:18;;;;;;;5.55;4.20;;;;;;;12.74;71.74;99747.88;1639798;87;26696;-74
2022/04/24 09:22:46;;;;;;;4.20;3.80;;;;;;;12.76;70.92;99743.63;1639203;87;25849;-75
2022/04/24 09:25:13;;;;;;;4.17;3.72;;;;;;;12.77;71.06;99747.42;1640302;87;28281;-75
2022/04/24 09:27:40;;;;;;;4.25;3.85;;;;;;;12.81;71.41;99736.52;1640262;85;25792;-76
2022/04/24 09:30:13;;;;;;;5.78;3.72;;;;;;;12.86;70.17;99742.58;1640146;87;25837;-75
2022/04/24 09:32:55;;;;;;;4.25;3.77;;;;;;;12.85;68.72;99734.23;1650847;85;25755;-77
2022/04/24 09:35:31;;;;;;;5.90;3.45;;;;;;;12.77;69.32;99733.98;1668508;85;25883;-75
2022/04/24 09:38:14;;;;;;;4.65;3.60;;;;;;;12.76;69.11;99738.25;1644892;85;27637;-75
2022/04/24 09:40:48;;;;;;;4.30;3.80;;;;;;;12.81;69.85;99738.41;1641153;87;25817;-75
2022/04/24 09:43:18;;;;;;;5.40;3.92;;;;;;;12.86;69.84;99738.55;1590835;89;25665;-75
2022/04/24 09:45:50;;;;;;;3.52;3.20;;;;;;;12.94;69.80;99743.63;1614096;88;25813;-75
2022/04/24 09:48:20;;;;;;;4.25;3.30;;;;;;;12.97;69.28;99743.20;1635323;86;25936;-75
2022/04/24 09:50:50;;;;;;;3.95;3.52;;;;;;;12.94;67.94;99751.18;1611731;87;28312;-75
2022/04/24 09:53:20;;;;;;;6.37;3.87;;;;;;;12.89;68.16;99747.02;1632241;87;34907;-75
2022/04/24 09:55:51;;;;;;;4.83;3.70;;;;;;;12.88;68.65;99752.59;1624322;87;26552;-75
2022/04/24 09:58:21;;;;;;;5.95;4.03;;;;;;;12.90;67.57;99753.19;1616752;87;25839;-75
2022/04/24 10:00:49;;;;;;;4.42;3.90;;;;;;;12.87;67.41;99763.05;1609745;87;26084;-75
2022/04/24 10:03:18;;;;;;;4.47;3.80;;;;;;;12.87;68.00;99769.23;1586346;89;28350;-75
2022/04/24 10:05:47;;;;;;;4.35;3.95;;;;;;;12.91;68.05;99768.28;1622709;87;25925;-75
2022/04/24 10:08:16;;;;;;;5.08;4.30;;;;;;;12.94;67.83;99764.63;1628021;87;25345;-75
2022/04/24 10:10:43;;;;;;;4.50;4.05;;;;;;;12.98;67.73;99767.70;1616288;87;25990;-75
2022/04/24 10:13:12;;;;;;;4.30;3.77;;;;;;;13.05;68.55;99763.09;1635233;87;25567;-75
2022/04/24 10:15:49;;;;;;;4.03;3.42;;;;;;;13.12;67.32;99765.20;1634547;87;28334;-75
2022/04/24 10:18:45;;;;;;;3.35;3.05;;;;;;;13.13;67.18;99766.31;1634026;86;26019;-75
2022/04/24 10:21:41;;;;;;;3.25;2.92;;;;;;;13.21;67.02;99756.31;1609098;87;37171;-75
2022/04/24 10:24:09;;;;;;;3.33;3.02;;;;;;;13.35;67.60;99747.86;1620458;87;25790;-74
2022/04/24 10:26:37;;;;;;;4.03;3.62;;;;;;;13.50;66.41;99749.64;1620733;87;25769;-75
2022/04/24 10:29:08;;;;;;;3.95;3.58;;;;;;;13.60;66.86;99749.13;1623229;87;28270;-75
2022/04/24 10:31:45;;;;;;;3.20;2.87;;;;;;;13.77;67.07;99743.41;1626419;87;25740;-75
2022/04/24 10:37:29;;;;;;;3.67;3.25;;;;;;;14.29;64.15;99737.78;1627098;84;26642;-74
2022/04/24 10:40:00;;;;;;;3.98;3.58;;;;;;;14.58;64.53;99741.73;1612194;88;25965;-74
2022/04/24 10:45:21;;;;;;;4.03;3.00;;;;;;;14.88;64.48;99726.83;1614300;86;26036;-74
2022/04/24 10:47:55;;;;;;;3.92;3.40;;;;;;;14.99;63.45;99725.17;1620348;87;26537;-74
2022/04/24 10:50:23;;;;;;;3.17;2.98;;;;;;;15.14;63.59;99723.61;1617198;88;26516;-75
2022/04/24 10:52:55;;;;;;;3.00;2.77;;;;;;;15.19;63.02;99726.42;1618748;88;25864;-74
2022/04/24 10:55:29;;;;;;;3.90;3.40;;;;;;;15.18;62.81;99732.86;1617609;88;27986;-74
2022/04/24 10:58:00;;;;;;;3.62;3.33;;;;;;;15.15;63.36;99727.95;1636463;87;26160;-75
2022/04/24 11:00:34;;;;;;;5.27;3.80;;;;;;;15.18;63.17;99726.11;1621335;87;25904;-75
2022/04/24 11:03:16;;;;;;;7.87;3.10;;;;;;;15.22;63.61;99731.35;1616643;88;25775;-76
2022/04/24 11:05:49;;;;;;;4.25;3.12;;;;;;;15.17;61.49;99732.58;1622293;87;25767;-74
2022/04/24 11:08:21;;;;;;;3.35;3.05;;;;;;;14.96;61.04;99727.81;1625351;87;28765;-74
2022/04/24 11:10:49;;;;;;;3.30;3.00;;;;;;;14.84;60.95;99729.67;1629380;87;26147;-75
2022/04/24 11:13:19;;;;;;;2.72;2.50;;;;;;;14.73;60.17;99727.00;1613000;87;25786;-75
2022/04/24 11:15:48;;;;;;;3.50;2.85;;;;;;;14.62;60.25;99717.34;1598539;89;26579;-75
2022/04/24 11:18:23;;;;;;;3.37;3.08;;;;;;;14.57;60.51;99714.52;1606892;89;25977;-75
2022/04/24 11:21:01;;;;;;;2.70;2.50;;;;;;;14.52;60.58;99722.47;1605448;88;27503;-75
2022/04/24 11:23:31;;;;;;;3.33;2.87;;;;;;;14.50;60.91;99718.36;1623317;87;25800;-75
2022/04/24 11:25:59;;;;;;;3.00;2.70;;;;;;;14.51;61.57;99722.19;1578258;88;25852;-75
2022/04/24 11:28:43;;;;;;;2.75;2.55;;;;;;;14.54;61.86;99717.66;1627689;87;26480;-75
2022/04/24 11:31:16;;;;;;;3.37;3.10;;;;;;;14.60;61.48;99718.10;1623443;87;25823;-76
2022/04/24 11:33:59;;;;;;;3.42;2.80;;;;;;;14.65;61.27;99714.16;1616847;88;27467;-75
2022/04/24 11:36:34;;;;;;;2.50;2.30;;;;;;;14.69;61.59;99711.28;1626826;87;25736;-75
2022/04/24 11:39:04;;;;;;;3.58;3.27;;;;;;;14.85;61.20;99708.93;1619669;88;26514;-75